sensor_id;sensor_type;location;lat;lon;timestamp;pressure;altitude;pressure_sealevel;temperature;humidity
19576;BME280;41589;51.196;7.074;2023-07-29T00:04:40;98224.72;;;19.53;100.00
19576;BME280;41589;51.196;7.074;2023-07-29T00:09:41;98219.22;;;19.55;100.00
19576;BME280;41589;51.196;7.074;2023-07-29T00:14:41;98217.13;;;19.56;100.00
19576;BME280;41589;51.196;7.074;2023-07-29T00:19:41;98214.59;;;19.52;100.00
19576;BME280;41589;51.196;7.074;2023-07-29T00:24:42;98212.75;;;19.55;100.00
19576;BME280;41589;51.196;7.074;2023-07-29T00:29:42;98201.09;;;19.53;100.00
19576;BME280;41589;51.196;7.074;2023-07-29T00:34:42;98194.97;;;19.49;100.00
19576;BME280;41589;51.196;7.074;2023-07-29T00:39:45;98202.44;;;19.52;100.00
19576;BME280;41589;51.196;7.074;2023-07-29T00:44:45;98200.56;;;19.54;100.00
19576;BME280;41589;51.196;7.074;2023-07-29T00:49:45;98194.84;;;19.54;100.00
19576;BME280;41589;51.196;7.074;2023-07-29T00:54:46;98180.69;;;19.49;100.00
19576;BME280;41589;51.196;7.074;2023-07-29T00:59:46;98187.19;;;19.49;100.00
19576;BME280;41589;51.196;7.074;2023-07-29T01:04:54;98185.63;;;19.48;100.00
19576;BME280;41589;51.196;7.074;2023-07-29T01:15:13;98183.00;;;19.50;100.00
19576;BME280;41589;51.196;7.074;2023-07-29T01:20:15;98183.09;;;19.45;100.00
19576;BME280;41589;51.196;7.074;2023-07-29T01:25:16;98177.63;;;19.47;100.00
19576;BME280;41589;51.196;7.074;2023-07-29T01:30:16;98173.53;;;19.42;100.00
19576;BME280;41589;51.196;7.074;2023-07-29T01:40:26;98175.09;;;19.43;100.00
19576;BME280;41589;51.196;7.074;2023-07-29T01:45:28;98151.94;;;19.47;100.00
19576;BME280;41589;51.196;7.074;2023-07-29T01:50:32;98162.03;;;19.48;100.00
19576;BME280;41589;51.196;7.074;2023-07-29T01:55:32;98169.59;;;19.45;100.00
19576;BME280;41589;51.196;7.074;2023-07-29T02:00:33;98165.19;;;19.44;100.00
19576;BME280;41589;51.196;7.074;2023-07-29T02:05:33;98151.50;;;19.43;100.00
19576;BME280;41589;51.196;7.074;2023-07-29T02:10:34;98146.53;;;19.43;100.00
19576;BME280;41589;51.196;7.074;2023-07-29T02:15:34;98142.94;;;19.43;100.00
19576;BME280;41589;51.196;7.074;2023-07-29T02:20:34;98137.44;;;19.45;100.00
19576;BME280;41589;51.196;7.074;2023-07-29T02:25:35;98148.84;;;19.45;100.00
19576;BME280;41589;51.196;7.074;2023-07-29T02:30:36;98137.69;;;19.47;100.00
19576;BME280;41589;51.196;7.074;2023-07-29T02:35:37;98120.56;;;19.47;100.00
19576;BME280;41589;51.196;7.074;2023-07-29T02:40:38;98122.31;;;19.50;100.00
19576;BME280;41589;51.196;7.074;2023-07-29T02:45:38;98127.13;;;19.42;100.00
19576;BME280;41589;51.196;7.074;2023-07-29T02:50:38;98136.88;;;19.46;100.00
19576;BME280;41589;51.196;7.074;2023-07-29T02:55:40;98143.47;;;19.41;100.00
19576;BME280;41589;51.196;7.074;2023-07-29T03:00:40;98136.88;;;19.46;100.00
19576;BME280;41589;51.196;7.074;2023-07-29T03:05:42;98143.38;;;19.47;100.00
19576;BME280;41589;51.196;7.074;2023-07-29T03:10:42;98141.38;;;19.42;100.00
19576;BME280;41589;51.196;7.074;2023-07-29T03:15:43;98136.13;;;19.46;100.00
19576;BME280;41589;51.196;7.074;2023-07-29T03:20:43;98135.03;;;19.49;100.00
19576;BME280;41589;51.196;7.074;2023-07-29T03:25:43;98137.22;;;19.43;100.00
19576;BME280;41589;51.196;7.074;2023-07-29T03:30:45;98136.66;;;19.44;100.00
19576;BME280;41589;51.196;7.074;2023-07-29T03:35:45;98133.03;;;19.30;100.00
19576;BME280;41589;51.196;7.074;2023-07-29T03:40:46;98136.28;;;19.21;100.00
19576;BME280;41589;51.196;7.074;2023-07-29T03:45:46;98130.16;;;19.17;100.00
19576;BME280;41589;51.196;7.074;2023-07-29T03:50:47;98115.22;;;19.24;100.00
19576;BME280;41589;51.196;7.074;2023-07-29T03:55:47;98112.47;;;19.19;100.00
19576;BME280;41589;51.196;7.074;2023-07-29T04:00:50;98107.97;;;19.23;100.00
19576;BME280;41589;51.196;7.074;2023-07-29T04:05:50;98103.53;;;19.28;100.00
19576;BME280;41589;51.196;7.074;2023-07-29T04:10:51;98113.28;;;19.32;100.00
19576;BME280;41589;51.196;7.074;2023-07-29T04:15:51;98118.06;;;19.24;100.00
19576;BME280;41589;51.196;7.074;2023-07-29T04:20:52;98133.00;;;19.17;100.00
19576;BME280;41589;51.196;7.074;2023-07-29T04:25:52;98131.47;;;19.16;100.00
19576;BME280;41589;51.196;7.074;2023-07-29T04:30:53;98128.28;;;19.07;100.00
19576;BME280;41589;51.196;7.074;2023-07-29T04:35:53;98142.38;;;18.99;100.00
19576;BME280;41589;51.196;7.074;2023-07-29T04:40:54;98153.69;;;18.72;100.00
19576;BME280;41589;51.196;7.074;2023-07-29T04:45:54;98145.06;;;18.78;100.00
19576;BME280;41589;51.196;7.074;2023-07-29T04:50:57;98150.41;;;18.68;100.00
19576;BME280;41589;51.196;7.074;2023-07-29T04:56:16;98154.09;;;18.63;100.00
19576;BME280;41589;51.196;7.074;2023-07-29T05:01:19;98170.91;;;18.67;100.00
19576;BME280;41589;51.196;7.074;2023-07-29T05:06:22;98164.66;;;18.68;100.00
19576;BME280;41589;51.196;7.074;2023-07-29T05:11:25;98149.63;;;18.68;100.00
19576;BME280;41589;51.196;7.074;2023-07-29T05:16:26;98141.31;;;18.70;100.00
19576;BME280;41589;51.196;7.074;2023-07-29T05:21:28;98133.84;;;18.67;100.00
19576;BME280;41589;51.196;7.074;2023-07-29T05:26:29;98140.13;;;18.79;100.00
19576;BME280;41589;51.196;7.074;2023-07-29T05:31:29;98149.25;;;18.77;100.00
19576;BME280;41589;51.196;7.074;2023-07-29T05:36:30;98156.94;;;18.63;100.00
19576;BME280;41589;51.196;7.074;2023-07-29T05:41:30;98148.00;;;18.72;100.00
19576;BME280;41589;51.196;7.074;2023-07-29T05:46:32;98172.88;;;18.72;100.00
19576;BME280;41589;51.196;7.074;2023-07-29T05:51:34;98182.91;;;18.60;100.00
19576;BME280;41589;51.196;7.074;2023-07-29T05:56:44;98185.94;;;18.49;100.00
19576;BME280;41589;51.196;7.074;2023-07-29T06:01:45;98182.75;;;18.52;100.00
19576;BME280;41589;51.196;7.074;2023-07-29T06:06:46;98196.25;;;18.52;100.00
19576;BME280;41589;51.196;7.074;2023-07-29T06:11:47;98211.81;;;18.51;100.00
19576;BME280;41589;51.196;7.074;2023-07-29T06:16:48;98218.75;;;18.55;100.00
19576;BME280;41589;51.196;7.074;2023-07-29T06:21:55;98230.44;;;18.52;100.00
19576;BME280;41589;51.196;7.074;2023-07-29T06:27:07;98219.34;;;18.48;100.00
19576;BME280;41589;51.196;7.074;2023-07-29T06:32:07;98243.59;;;18.36;100.00
19576;BME280;41589;51.196;7.074;2023-07-29T06:37:11;98248.19;;;18.39;100.00
19576;BME280;41589;51.196;7.074;2023-07-29T06:42:11;98258.81;;;18.38;100.00
19576;BME280;41589;51.196;7.074;2023-07-29T06:47:11;98259.59;;;18.39;100.00
19576;BME280;41589;51.196;7.074;2023-07-29T06:52:12;98247.44;;;18.38;100.00
19576;BME280;41589;51.196;7.074;2023-07-29T06:57:13;98237.50;;;18.26;100.00
19576;BME280;41589;51.196;7.074;2023-07-29T07:02:13;98235.63;;;18.29;100.00
19576;BME280;41589;51.196;7.074;2023-07-29T07:07:15;98243.72;;;18.25;100.00
19576;BME280;41589;51.196;7.074;2023-07-29T07:12:15;98258.25;;;18.21;100.00
19576;BME280;41589;51.196;7.074;2023-07-29T07:17:16;98248.78;;;18.32;100.00
19576;BME280;41589;51.196;7.074;2023-07-29T07:22:16;98254.75;;;18.34;100.00
19576;BME280;41589;51.196;7.074;2023-07-29T07:27:16;98247.63;;;18.46;100.00
19576;BME280;41589;51.196;7.074;2023-07-29T07:32:18;98249.88;;;18.53;100.00
19576;BME280;41589;51.196;7.074;2023-07-29T07:37:18;98248.16;;;18.63;100.00
19576;BME280;41589;51.196;7.074;2023-07-29T07:42:19;98269.13;;;18.66;100.00
19576;BME280;41589;51.196;7.074;2023-07-29T07:47:19;98268.47;;;18.92;100.00
19576;BME280;41589;51.196;7.074;2023-07-29T07:52:19;98265.06;;;18.93;100.00
19576;BME280;41589;51.196;7.074;2023-07-29T07:57:21;98270.94;;;18.82;100.00
19576;BME280;41589;51.196;7.074;2023-07-29T08:02:21;98272.03;;;18.98;100.00
19576;BME280;41589;51.196;7.074;2023-07-29T08:07:22;98257.84;;;18.92;100.00
19576;BME280;41589;51.196;7.074;2023-07-29T08:12:22;98268.56;;;18.86;100.00
19576;BME280;41589;51.196;7.074;2023-07-29T08:17:23;98271.19;;;18.65;100.00
19576;BME280;41589;51.196;7.074;2023-07-29T08:22:23;98261.94;;;18.78;100.00
19576;BME280;41589;51.196;7.074;2023-07-29T08:27:24;98270.47;;;19.16;100.00
19576;BME280;41589;51.196;7.074;2023-07-29T08:32:24;98266.81;;;19.15;100.00
19576;BME280;41589;51.196;7.074;2023-07-29T08:37:24;98260.31;;;19.33;100.00
19576;BME280;41589;51.196;7.074;2023-07-29T08:42:29;98265.19;;;19.39;100.00
19576;BME280;41589;51.196;7.074;2023-07-29T08:52:31;98263.41;;;19.36;100.00
19576;BME280;41589;51.196;7.074;2023-07-29T08:57:32;98264.09;;;19.42;100.00
19576;BME280;41589;51.196;7.074;2023-07-29T09:02:33;98273.03;;;19.65;100.00
19576;BME280;41589;51.196;7.074;2023-07-29T09:07:34;98272.13;;;19.56;100.00
19576;BME280;41589;51.196;7.074;2023-07-29T09:12:36;98274.69;;;19.73;100.00
19576;BME280;41589;51.196;7.074;2023-07-29T09:17:36;98276.50;;;19.89;100.00
19576;BME280;41589;51.196;7.074;2023-07-29T09:22:37;98280.22;;;19.98;100.00
19576;BME280;41589;51.196;7.074;2023-07-29T09:27:37;98292.34;;;20.17;100.00
19576;BME280;41589;51.196;7.074;2023-07-29T09:32:39;98291.56;;;20.16;100.00
19576;BME280;41589;51.196;7.074;2023-07-29T09:37:40;98285.31;;;20.18;100.00
19576;BME280;41589;51.196;7.074;2023-07-29T09:42:47;98280.56;;;20.07;100.00
19576;BME280;41589;51.196;7.074;2023-07-29T09:47:56;98274.31;;;20.22;100.00
19576;BME280;41589;51.196;7.074;2023-07-29T09:52:57;98282.34;;;20.10;100.00
19576;BME280;41589;51.196;7.074;2023-07-29T09:58:01;98286.28;;;20.47;100.00
19576;BME280;41589;51.196;7.074;2023-07-29T10:03:04;98275.06;;;20.36;100.00
19576;BME280;41589;51.196;7.074;2023-07-29T10:08:07;98294.72;;;20.00;100.00
19576;BME280;41589;51.196;7.074;2023-07-29T10:13:09;98293.63;;;19.89;100.00
19576;BME280;41589;51.196;7.074;2023-07-29T10:18:10;98289.81;;;20.13;100.00
19576;BME280;41589;51.196;7.074;2023-07-29T10:23:11;98288.25;;;20.52;100.00
19576;BME280;41589;51.196;7.074;2023-07-29T10:28:12;98288.53;;;20.75;100.00
19576;BME280;41589;51.196;7.074;2023-07-29T10:33:16;98289.09;;;20.87;100.00
19576;BME280;41589;51.196;7.074;2023-07-29T10:38:17;98292.72;;;20.87;100.00
19576;BME280;41589;51.196;7.074;2023-07-29T10:43:39;98296.81;;;20.65;100.00
19576;BME280;41589;51.196;7.074;2023-07-29T10:48:40;98293.44;;;20.54;100.00
19576;BME280;41589;51.196;7.074;2023-07-29T10:53:41;98294.84;;;20.47;100.00
19576;BME280;41589;51.196;7.074;2023-07-29T10:58:42;98287.81;;;20.48;100.00
19576;BME280;41589;51.196;7.074;2023-07-29T11:04:01;98293.59;;;20.69;100.00
19576;BME280;41589;51.196;7.074;2023-07-29T11:14:40;98278.25;;;21.06;100.00
19576;BME280;41589;51.196;7.074;2023-07-29T11:19:40;98274.16;;;21.15;100.00
19576;BME280;41589;51.196;7.074;2023-07-29T11:24:41;98275.72;;;21.02;100.00
19576;BME280;41589;51.196;7.074;2023-07-29T11:29:42;98271.22;;;21.07;100.00
19576;BME280;41589;51.196;7.074;2023-07-29T11:34:42;98278.97;;;20.86;100.00
19576;BME280;41589;51.196;7.074;2023-07-29T11:39:44;98281.84;;;20.72;100.00
19576;BME280;41589;51.196;7.074;2023-07-29T11:44:45;98286.34;;;20.68;100.00
19576;BME280;41589;51.196;7.074;2023-07-29T11:49:45;98278.44;;;20.74;100.00
19576;BME280;41589;51.196;7.074;2023-07-29T11:54:49;98281.72;;;20.78;100.00
19576;BME280;41589;51.196;7.074;2023-07-29T11:59:50;98262.97;;;21.03;100.00
19576;BME280;41589;51.196;7.074;2023-07-29T12:04:50;98278.72;;;20.97;100.00
19576;BME280;41589;51.196;7.074;2023-07-29T12:09:51;98281.19;;;21.14;100.00
19576;BME280;41589;51.196;7.074;2023-07-29T12:14:54;98269.16;;;21.70;100.00
19576;BME280;41589;51.196;7.074;2023-07-29T12:19:55;98266.06;;;21.47;100.00
19576;BME280;41589;51.196;7.074;2023-07-29T12:24:55;98261.50;;;21.31;100.00
19576;BME280;41589;51.196;7.074;2023-07-29T12:29:55;98267.09;;;21.16;100.00
19576;BME280;41589;51.196;7.074;2023-07-29T12:34:56;98264.94;;;21.09;100.00
19576;BME280;41589;51.196;7.074;2023-07-29T12:39:56;98259.09;;;21.35;100.00
19576;BME280;41589;51.196;7.074;2023-07-29T12:44:56;98254.81;;;21.49;100.00
19576;BME280;41589;51.196;7.074;2023-07-29T12:49:57;98244.44;;;21.59;100.00
19576;BME280;41589;51.196;7.074;2023-07-29T12:54:57;98255.78;;;21.73;100.00
19576;BME280;41589;51.196;7.074;2023-07-29T12:59:57;98257.00;;;21.56;100.00
19576;BME280;41589;51.196;7.074;2023-07-29T13:04:58;98258.09;;;21.32;100.00
19576;BME280;41589;51.196;7.074;2023-07-29T13:09:58;98259.28;;;21.79;100.00
19576;BME280;41589;51.196;7.074;2023-07-29T13:14:58;98254.88;;;22.06;100.00
19576;BME280;41589;51.196;7.074;2023-07-29T13:19:59;98259.38;;;21.94;100.00
19576;BME280;41589;51.196;7.074;2023-07-29T13:24:59;98262.63;;;21.90;100.00
19576;BME280;41589;51.196;7.074;2023-07-29T13:29:59;98269.41;;;21.80;100.00
19576;BME280;41589;51.196;7.074;2023-07-29T13:35:00;98270.03;;;21.65;100.00
19576;BME280;41589;51.196;7.074;2023-07-29T13:40:00;98276.81;;;21.54;100.00
19576;BME280;41589;51.196;7.074;2023-07-29T13:45:02;98274.41;;;21.58;100.00
19576;BME280;41589;51.196;7.074;2023-07-29T13:50:02;98269.69;;;21.48;100.00
19576;BME280;41589;51.196;7.074;2023-07-29T13:55:04;98258.84;;;21.33;100.00
19576;BME280;41589;51.196;7.074;2023-07-29T14:00:06;98257.31;;;21.32;100.00
19576;BME280;41589;51.196;7.074;2023-07-29T14:05:11;98268.16;;;21.47;100.00
19576;BME280;41589;51.196;7.074;2023-07-29T14:10:12;98273.25;;;21.41;100.00
19576;BME280;41589;51.196;7.074;2023-07-29T14:15:12;98271.50;;;21.38;100.00
19576;BME280;41589;51.196;7.074;2023-07-29T14:20:13;98287.63;;;21.48;100.00
19576;BME280;41589;51.196;7.074;2023-07-29T14:25:14;98285.25;;;21.18;100.00
19576;BME280;41589;51.196;7.074;2023-07-29T14:30:14;98305.75;;;21.09;100.00
19576;BME280;41589;51.196;7.074;2023-07-29T14:35:15;98317.50;;;21.19;100.00
19576;BME280;41589;51.196;7.074;2023-07-29T14:40:15;98302.06;;;21.22;100.00
19576;BME280;41589;51.196;7.074;2023-07-29T14:45:15;98297.88;;;21.44;100.00
19576;BME280;41589;51.196;7.074;2023-07-29T14:50:16;98290.31;;;21.46;100.00
19576;BME280;41589;51.196;7.074;2023-07-29T14:55:16;98304.25;;;21.50;100.00
19576;BME280;41589;51.196;7.074;2023-07-29T15:00:16;98295.13;;;21.72;100.00
19576;BME280;41589;51.196;7.074;2023-07-29T15:05:17;98286.31;;;21.91;100.00
19576;BME280;41589;51.196;7.074;2023-07-29T15:10:18;98296.50;;;22.00;100.00
19576;BME280;41589;51.196;7.074;2023-07-29T15:15:18;98280.63;;;21.99;100.00
19576;BME280;41589;51.196;7.074;2023-07-29T15:20:19;98288.25;;;22.25;100.00
19576;BME280;41589;51.196;7.074;2023-07-29T15:25:19;98268.38;;;22.27;100.00
19576;BME280;41589;51.196;7.074;2023-07-29T15:30:19;98285.88;;;22.08;100.00
19576;BME280;41589;51.196;7.074;2023-07-29T15:35:21;98278.81;;;22.16;100.00
19576;BME280;41589;51.196;7.074;2023-07-29T15:40:22;98262.09;;;22.28;100.00
19576;BME280;41589;51.196;7.074;2023-07-29T15:45:22;98265.84;;;22.15;100.00
19576;BME280;41589;51.196;7.074;2023-07-29T15:50:22;98270.78;;;22.15;100.00
19576;BME280;41589;51.196;7.074;2023-07-29T15:55:23;98270.56;;;22.34;100.00
19576;BME280;41589;51.196;7.074;2023-07-29T16:00:23;98265.25;;;22.45;100.00
19576;BME280;41589;51.196;7.074;2023-07-29T16:05:24;98255.91;;;22.45;100.00
19576;BME280;41589;51.196;7.074;2023-07-29T16:10:24;98264.94;;;22.21;100.00
19576;BME280;41589;51.196;7.074;2023-07-29T16:15:25;98281.81;;;22.03;100.00
19576;BME280;41589;51.196;7.074;2023-07-29T16:20:26;98277.16;;;21.93;100.00
19576;BME280;41589;51.196;7.074;2023-07-29T16:25:26;98265.44;;;21.83;100.00
19576;BME280;41589;51.196;7.074;2023-07-29T16:30:27;98276.38;;;21.92;100.00
19576;BME280;41589;51.196;7.074;2023-07-29T16:35:27;98272.25;;;22.01;100.00
19576;BME280;41589;51.196;7.074;2023-07-29T16:40:28;98275.34;;;21.82;100.00
19576;BME280;41589;51.196;7.074;2023-07-29T16:45:28;98264.56;;;21.67;100.00
19576;BME280;41589;51.196;7.074;2023-07-29T16:50:29;98260.66;;;21.85;100.00
19576;BME280;41589;51.196;7.074;2023-07-29T16:55:29;98275.06;;;21.72;100.00
19576;BME280;41589;51.196;7.074;2023-07-29T17:00:29;98252.88;;;21.65;100.00
19576;BME280;41589;51.196;7.074;2023-07-29T17:05:30;98256.28;;;21.64;100.00
19576;BME280;41589;51.196;7.074;2023-07-29T17:10:30;98256.91;;;21.49;100.00
19576;BME280;41589;51.196;7.074;2023-07-29T17:15:30;98256.28;;;21.64;100.00
19576;BME280;41589;51.196;7.074;2023-07-29T17:20:31;98249.56;;;21.82;100.00
19576;BME280;41589;51.196;7.074;2023-07-29T17:25:31;98257.00;;;21.77;100.00
19576;BME280;41589;51.196;7.074;2023-07-29T17:30:32;98257.28;;;21.66;100.00
19576;BME280;41589;51.196;7.074;2023-07-29T17:35:35;98258.41;;;21.63;100.00
19576;BME280;41589;51.196;7.074;2023-07-29T17:40:35;98256.16;;;21.48;100.00
19576;BME280;41589;51.196;7.074;2023-07-29T17:45:37;98264.06;;;21.35;100.00
19576;BME280;41589;51.196;7.074;2023-07-29T17:50:37;98262.56;;;21.41;100.00
19576;BME280;41589;51.196;7.074;2023-07-29T17:55:39;98260.97;;;21.32;100.00
19576;BME280;41589;51.196;7.074;2023-07-29T18:00:39;98262.00;;;21.22;100.00
19576;BME280;41589;51.196;7.074;2023-07-29T18:05:39;98268.75;;;21.11;100.00
19576;BME280;41589;51.196;7.074;2023-07-29T18:10:40;98289.19;;;20.94;100.00
19576;BME280;41589;51.196;7.074;2023-07-29T18:15:41;98290.50;;;20.80;100.00
19576;BME280;41589;51.196;7.074;2023-07-29T18:20:41;98283.50;;;20.68;100.00
19576;BME280;41589;51.196;7.074;2023-07-29T18:25:42;98290.97;;;20.71;100.00
19576;BME280;41589;51.196;7.074;2023-07-29T18:30:43;98297.47;;;20.58;100.00
19576;BME280;41589;51.196;7.074;2023-07-29T18:35:43;98302.34;;;20.37;100.00
19576;BME280;41589;51.196;7.074;2023-07-29T18:40:43;98296.75;;;20.31;100.00
19576;BME280;41589;51.196;7.074;2023-07-29T18:45:44;98311.53;;;19.90;100.00
19576;BME280;41589;51.196;7.074;2023-07-29T18:50:45;98307.13;;;19.89;100.00
19576;BME280;41589;51.196;7.074;2023-07-29T18:55:45;98304.34;;;19.70;100.00
19576;BME280;41589;51.196;7.074;2023-07-29T19:00:46;98319.06;;;19.74;100.00
19576;BME280;41589;51.196;7.074;2023-07-29T19:05:48;98315.44;;;19.87;100.00
19576;BME280;41589;51.196;7.074;2023-07-29T19:10:51;98317.31;;;19.84;100.00
19576;BME280;41589;51.196;7.074;2023-07-29T19:15:52;98318.28;;;19.74;100.00
19576;BME280;41589;51.196;7.074;2023-07-29T19:20:54;98314.88;;;19.75;100.00
19576;BME280;41589;51.196;7.074;2023-07-29T19:25:54;98322.59;;;19.80;100.00
19576;BME280;41589;51.196;7.074;2023-07-29T19:30:55;98321.81;;;19.80;100.00
19576;BME280;41589;51.196;7.074;2023-07-29T19:35:56;98314.03;;;19.80;100.00
19576;BME280;41589;51.196;7.074;2023-07-29T19:41:00;98331.25;;;19.75;100.00
19576;BME280;41589;51.196;7.074;2023-07-29T19:46:00;98332.47;;;19.79;100.00
19576;BME280;41589;51.196;7.074;2023-07-29T19:51:03;98323.38;;;19.81;100.00
19576;BME280;41589;51.196;7.074;2023-07-29T19:56:04;98321.38;;;19.76;100.00
19576;BME280;41589;51.196;7.074;2023-07-29T20:01:04;98327.06;;;19.76;100.00
19576;BME280;41589;51.196;7.074;2023-07-29T20:06:04;98327.63;;;19.74;100.00
19576;BME280;41589;51.196;7.074;2023-07-29T20:11:05;98325.22;;;19.78;100.00
19576;BME280;41589;51.196;7.074;2023-07-29T20:16:06;98327.19;;;19.70;100.00
19576;BME280;41589;51.196;7.074;2023-07-29T20:21:06;98322.38;;;19.78;100.00
19576;BME280;41589;51.196;7.074;2023-07-29T20:26:06;98317.97;;;19.77;100.00
19576;BME280;41589;51.196;7.074;2023-07-29T20:31:07;98312.25;;;19.77;100.00
19576;BME280;41589;51.196;7.074;2023-07-29T20:36:07;98305.47;;;19.80;100.00
19576;BME280;41589;51.196;7.074;2023-07-29T20:41:08;98318.50;;;19.76;100.00
19576;BME280;41589;51.196;7.074;2023-07-29T20:46:16;98315.66;;;19.76;100.00
19576;BME280;41589;51.196;7.074;2023-07-29T20:51:18;98312.34;;;19.72;100.00
19576;BME280;41589;51.196;7.074;2023-07-29T20:56:18;98309.59;;;19.66;100.00
19576;BME280;41589;51.196;7.074;2023-07-29T21:01:19;98312.69;;;19.68;100.00
19576;BME280;41589;51.196;7.074;2023-07-29T21:06:19;98320.50;;;19.68;100.00
19576;BME280;41589;51.196;7.074;2023-07-29T21:11:20;98324.75;;;19.61;100.00
19576;BME280;41589;51.196;7.074;2023-07-29T21:16:20;98316.38;;;19.50;100.00
19576;BME280;41589;51.196;7.074;2023-07-29T21:21:21;98335.38;;;19.60;100.00
19576;BME280;41589;51.196;7.074;2023-07-29T21:26:21;98328.56;;;19.50;100.00
19576;BME280;41589;51.196;7.074;2023-07-29T21:31:21;98334.22;;;19.37;100.00
19576;BME280;41589;51.196;7.074;2023-07-29T21:36:22;98332.34;;;19.40;100.00
19576;BME280;41589;51.196;7.074;2023-07-29T21:41:22;98339.59;;;19.41;100.00
19576;BME280;41589;51.196;7.074;2023-07-29T21:46:23;98340.22;;;19.33;100.00
19576;BME280;41589;51.196;7.074;2023-07-29T21:51:24;98341.63;;;19.27;100.00
19576;BME280;41589;51.196;7.074;2023-07-29T21:56:26;98342.09;;;19.31;100.00
19576;BME280;41589;51.196;7.074;2023-07-29T22:01:26;98358.44;;;19.30;100.00
19576;BME280;41589;51.196;7.074;2023-07-29T22:06:27;98354.47;;;19.33;100.00
19576;BME280;41589;51.196;7.074;2023-07-29T22:11:27;98369.41;;;19.26;100.00
19576;BME280;41589;51.196;7.074;2023-07-29T22:16:28;98371.59;;;19.15;100.00
19576;BME280;41589;51.196;7.074;2023-07-29T22:21:29;98382.00;;;19.12;100.00
19576;BME280;41589;51.196;7.074;2023-07-29T22:26:29;98395.56;;;19.06;100.00
19576;BME280;41589;51.196;7.074;2023-07-29T22:31:31;98407.91;;;19.14;100.00
19576;BME280;41589;51.196;7.074;2023-07-29T22:36:31;98403.81;;;19.10;100.00
19576;BME280;41589;51.196;7.074;2023-07-29T22:41:31;98405.44;;;19.05;100.00
19576;BME280;41589;51.196;7.074;2023-07-29T22:46:32;98417.09;;;19.07;100.00
19576;BME280;41589;51.196;7.074;2023-07-29T22:51:33;98417.84;;;19.08;100.00
19576;BME280;41589;51.196;7.074;2023-07-29T22:56:33;98415.78;;;19.08;100.00
19576;BME280;41589;51.196;7.074;2023-07-29T23:01:33;98427.94;;;19.09;100.00
19576;BME280;41589;51.196;7.074;2023-07-29T23:06:34;98426.94;;;19.06;100.00
19576;BME280;41589;51.196;7.074;2023-07-29T23:11:34;98429.41;;;18.96;100.00
19576;BME280;41589;51.196;7.074;2023-07-29T23:16:35;98433.31;;;18.93;100.00
19576;BME280;41589;51.196;7.074;2023-07-29T23:21:35;98429.22;;;18.89;100.00
19576;BME280;41589;51.196;7.074;2023-07-29T23:26:35;98427.81;;;18.77;100.00
19576;BME280;41589;51.196;7.074;2023-07-29T23:31:36;98427.34;;;18.72;100.00
19576;BME280;41589;51.196;7.074;2023-07-29T23:36:36;98431.03;;;18.67;100.00
19576;BME280;41589;51.196;7.074;2023-07-29T23:41:36;98436.78;;;18.62;100.00
19576;BME280;41589;51.196;7.074;2023-07-29T23:46:37;98429.84;;;18.57;100.00
19576;BME280;41589;51.196;7.074;2023-07-29T23:51:37;98427.13;;;18.46;100.00
19576;BME280;41589;51.196;7.074;2023-07-29T23:56:38;98439.66;;;18.32;100.00
